createdAt,value
2023-03-21T00:00:45.850Z,42.38
2023-03-21T00:03:14.716Z,42.40
2023-03-21T00:05:43.883Z,42.35
2023-03-21T00:08:11.837Z,42.33
2023-03-21T00:10:43.549Z,42.42
2023-03-21T00:13:32.305Z,42.50
2023-03-21T00:16:15.935Z,42.36
2023-03-21T00:18:54.805Z,42.34
2023-03-21T00:21:44.357Z,42.30
2023-03-21T00:24:10.182Z,42.22
2023-03-21T00:26:37.009Z,42.21
2023-03-21T00:29:04.352Z,42.17
2023-03-21T00:31:31.598Z,42.14
2023-03-21T00:33:58.939Z,42.32
2023-03-21T00:36:31.801Z,42.18
2023-03-21T00:39:02.159Z,42.14
2023-03-21T00:41:45.601Z,42.16
2023-03-21T00:44:16.212Z,42.14
2023-03-21T00:46:54.570Z,42.06
2023-03-21T00:49:34.897Z,42.08
2023-03-21T00:52:27.582Z,42.10
2023-03-21T00:54:51.185Z,42.10
2023-03-21T00:57:20.277Z,42.06
2023-03-21T00:59:51.838Z,42.12
2023-03-21T01:02:20.358Z,42.07
2023-03-21T01:04:47.954Z,42.03
2023-03-21T01:07:14.949Z,42.11
2023-03-21T01:09:42.535Z,42.08
2023-03-21T01:12:09.794Z,42.08
2023-03-21T01:14:36.922Z,42.05
2023-03-21T01:17:04.958Z,42.01
2023-03-21T01:19:50.153Z,42.00
2023-03-21T01:22:19.078Z,42.03
2023-03-21T01:24:54.160Z,42.07
2023-03-21T01:27:26.731Z,41.99
2023-03-21T01:29:56.349Z,41.97
2023-03-21T01:32:26.875Z,42.05
2023-03-21T01:34:54.664Z,41.97
2023-03-21T01:37:21.862Z,42.00
2023-03-21T01:39:49.037Z,41.97
2023-03-21T01:42:16.506Z,42.03
2023-03-21T01:44:58.818Z,42.01
2023-03-21T01:47:28.738Z,42.00
2023-03-21T01:49:59.622Z,41.96
2023-03-21T01:52:39.124Z,41.99
2023-03-21T01:55:12.692Z,42.02
2023-03-21T01:58:03.912Z,41.97
2023-03-21T02:00:33.153Z,42.03
2023-03-21T02:03:18.904Z,41.93
2023-03-21T02:06:02.369Z,42.03
2023-03-21T02:08:39.641Z,42.08
2023-03-21T02:11:11.836Z,42.12
2023-03-21T02:13:42.305Z,42.24
2023-03-21T02:16:23.034Z,42.22
2023-03-21T02:19:06.877Z,42.22
2023-03-21T02:21:49.098Z,42.23
2023-03-21T02:24:37.236Z,42.27
2023-03-21T02:27:17.827Z,42.32
2023-03-21T02:30:35.369Z,42.25
2023-03-21T02:33:43.693Z,42.34
2023-03-21T02:36:25.390Z,42.33
2023-03-21T02:39:26.146Z,42.36
2023-03-21T02:42:09.508Z,42.36
2023-03-21T02:44:58.352Z,42.35
2023-03-21T02:48:14.566Z,42.37
2023-03-21T02:50:52.653Z,42.41
2023-03-21T02:53:30.616Z,42.41
2023-03-21T02:56:00.002Z,42.47
2023-03-21T02:58:32.731Z,42.48
2023-03-21T03:01:05.529Z,42.45
2023-03-21T03:03:34.840Z,42.54
2023-03-21T03:06:05.322Z,42.59
2023-03-21T03:08:45.269Z,42.54
2023-03-21T03:11:38.256Z,42.51
2023-03-21T03:14:39.968Z,42.52
2023-03-21T03:17:28.537Z,42.54
2023-03-21T03:20:18.614Z,42.49
2023-03-21T03:23:09.975Z,42.49
2023-03-21T03:25:44.368Z,42.49
2023-03-21T03:28:16.009Z,42.52
2023-03-21T03:31:05.438Z,42.49
2023-03-21T03:33:40.433Z,42.45
2023-03-21T03:36:18.809Z,42.49
2023-03-21T03:38:59.868Z,42.53
2023-03-21T03:42:00.909Z,42.50
2023-03-21T03:44:21.740Z,42.52
2023-03-21T03:46:57.436Z,42.51
2023-03-21T03:49:32.486Z,42.51
2023-03-21T03:52:23.084Z,42.55
2023-03-21T03:54:59.134Z,42.52
2023-03-21T03:57:28.417Z,42.50
2023-03-21T03:59:56.724Z,42.54
2023-03-21T04:02:26.578Z,42.49
2023-03-21T04:04:56.335Z,42.47
2023-03-21T04:07:28.448Z,42.42
2023-03-21T04:09:57.453Z,42.44
2023-03-21T04:12:29.205Z,42.46
2023-03-21T04:15:10.226Z,42.42
2023-03-21T04:17:43.776Z,42.49
2023-03-21T04:20:23.555Z,42.51
2023-03-21T04:22:57.665Z,42.48
2023-03-21T04:25:33.300Z,42.49
2023-03-21T04:28:01.339Z,42.59
2023-03-21T04:30:28.610Z,42.51
2023-03-21T04:32:55.680Z,42.57
2023-03-21T04:35:24.102Z,42.61
2023-03-21T04:37:55.546Z,42.61
2023-03-21T04:40:25.751Z,42.64
2023-03-21T04:42:53.234Z,42.75
2023-03-21T04:45:20.263Z,42.71
2023-03-21T04:47:47.267Z,42.83
2023-03-21T04:50:17.488Z,42.92
2023-03-21T04:52:44.889Z,42.55
2023-03-21T04:55:14.800Z,42.14
2023-03-21T04:57:42.540Z,42.05
2023-03-21T05:00:10.862Z,41.96
2023-03-21T05:02:42.912Z,41.93
2023-03-21T05:05:10.176Z,41.87
2023-03-21T05:07:42.074Z,41.85
2023-03-21T05:10:11.346Z,41.74
2023-03-21T05:12:38.768Z,41.66
2023-03-21T05:15:09.669Z,41.71
2023-03-21T05:17:37.292Z,41.65
2023-03-21T05:20:05.539Z,41.72
2023-03-21T05:22:38.581Z,41.78
2023-03-21T05:25:09.720Z,41.81
2023-03-21T05:27:40.027Z,41.89
2023-03-21T05:30:13.101Z,42.00
2023-03-21T05:32:44.291Z,41.90
2023-03-21T05:35:11.237Z,41.96
2023-03-21T05:37:38.537Z,41.94
2023-03-21T05:40:10.326Z,42.00
2023-03-21T05:42:44.159Z,42.09
2023-03-21T05:45:12.428Z,41.95
2023-03-21T05:47:42.068Z,42.00
2023-03-21T05:50:12.016Z,42.02
2023-03-21T05:52:39.982Z,42.00
2023-03-21T05:55:08.076Z,41.97
2023-03-21T05:57:39.081Z,41.96
2023-03-21T06:00:08.241Z,41.93
2023-03-21T06:02:35.965Z,41.94
2023-03-21T06:05:07.995Z,41.97
2023-03-21T06:07:36.335Z,41.86
2023-03-21T06:10:08.187Z,41.99
2023-03-21T06:12:35.235Z,41.98
2023-03-21T06:15:03.740Z,42.02
2023-03-21T06:17:31.469Z,42.06
2023-03-21T06:20:06.090Z,42.10
2023-03-21T06:22:36.748Z,42.25
2023-03-21T06:25:07.261Z,42.31
2023-03-21T06:27:35.729Z,42.50
2023-03-21T06:30:05.239Z,42.50
2023-03-21T06:32:35.507Z,42.47
2023-03-21T06:35:05.532Z,42.62
2023-03-21T06:37:35.840Z,42.60
2023-03-21T06:40:05.762Z,42.54
2023-03-21T06:42:33.428Z,42.69
2023-03-21T06:45:04.058Z,42.59
2023-03-21T06:47:34.890Z,42.45
2023-03-21T06:50:02.474Z,42.40
2023-03-21T06:52:29.885Z,42.58
2023-03-21T06:54:57.189Z,42.75
2023-03-21T06:57:24.508Z,42.80
2023-03-21T06:59:55.252Z,42.81
2023-03-21T07:02:25.906Z,42.95
2023-03-21T07:04:54.318Z,42.82
2023-03-21T07:07:28.943Z,42.85
2023-03-21T07:09:56.816Z,42.82
2023-03-21T07:12:24.290Z,42.68
2023-03-21T07:14:53.160Z,42.50
2023-03-21T07:17:19.960Z,42.40
2023-03-21T07:19:49.897Z,42.46
2023-03-21T07:22:16.779Z,42.59
2023-03-21T07:24:45.917Z,42.50
2023-03-21T07:27:15.179Z,42.48
2023-03-21T07:29:45.198Z,42.34
2023-03-21T07:32:11.903Z,42.24
2023-03-21T07:34:38.714Z,42.32
2023-03-21T07:37:06.538Z,42.22
2023-03-21T07:39:33.734Z,42.38
2023-03-21T07:42:00.830Z,42.52
2023-03-21T07:44:27.650Z,42.92
2023-03-21T07:46:54.550Z,42.84
2023-03-21T07:49:23.770Z,42.83
2023-03-21T07:51:56.659Z,43.00
2023-03-21T07:54:23.558Z,43.01
2023-03-21T07:56:56.291Z,43.20
2023-03-21T07:59:23.867Z,43.41
2023-03-21T08:01:50.967Z,43.45
2023-03-21T08:04:19.962Z,43.59
2023-03-21T08:06:46.852Z,43.75
2023-03-21T08:09:20.349Z,43.80
2023-03-21T08:11:51.036Z,44.08
2023-03-21T08:14:21.163Z,43.51
2023-03-21T08:16:51.081Z,43.28
2023-03-21T08:19:18.467Z,43.87
2023-03-21T08:21:45.291Z,44.31
2023-03-21T08:24:15.482Z,44.79
2023-03-21T08:26:48.539Z,44.56
2023-03-21T08:29:15.642Z,44.54
2023-03-21T08:31:45.789Z,44.50
2023-03-21T08:34:13.482Z,44.75
2023-03-21T08:36:43.244Z,43.76
2023-03-21T08:39:10.441Z,43.53
2023-03-21T08:41:41.163Z,43.89
2023-03-21T08:44:11.188Z,44.14
2023-03-21T08:46:40.954Z,44.37
2023-03-21T08:49:10.660Z,44.44
2023-03-21T08:51:40.668Z,44.46
2023-03-21T08:54:18.090Z,44.36
2023-03-21T08:56:44.870Z,44.28
2023-03-21T08:59:11.533Z,44.18
2023-03-21T09:01:39.333Z,44.11
2023-03-21T09:04:06.486Z,44.15
2023-03-21T09:06:34.182Z,44.07
2023-03-21T09:09:04.957Z,43.99
2023-03-21T09:11:35.020Z,44.15
2023-03-21T09:16:41.696Z,43.09
2023-03-21T09:19:09.061Z,43.06
2023-03-21T09:21:36.441Z,43.94
2023-03-21T09:24:04.173Z,44.00
2023-03-21T09:26:30.972Z,44.02
2023-03-21T09:28:57.762Z,43.95
2023-03-21T09:31:28.025Z,43.99
2023-03-21T09:33:55.469Z,44.04
2023-03-21T09:36:25.975Z,43.91
2023-03-21T09:38:54.116Z,43.86
2023-03-21T09:41:38.216Z,43.80
2023-03-21T09:44:42.640Z,43.88
2023-03-21T09:47:20.269Z,43.81
2023-03-21T09:50:07.528Z,43.71
2023-03-21T09:52:56.957Z,43.72
2023-03-21T09:55:36.708Z,43.74
2023-03-21T09:58:37.733Z,43.71
2023-03-21T10:01:12.993Z,43.70
2023-03-21T10:03:43.427Z,43.73
2023-03-21T10:06:14.805Z,43.92
2023-03-21T10:08:46.412Z,44.07
2023-03-21T10:11:23.807Z,43.95
2023-03-21T10:14:01.856Z,43.96
2023-03-21T10:16:56.154Z,44.04
2023-03-21T10:19:23.147Z,43.87
2023-03-21T10:22:06.995Z,43.79
2023-03-21T10:24:35.186Z,43.88
2023-03-21T10:27:03.086Z,43.97
2023-03-21T10:29:38.829Z,44.19
2023-03-21T10:32:09.424Z,44.57
2023-03-21T10:34:48.693Z,44.34
2023-03-21T10:37:15.947Z,44.47
2023-03-21T10:39:49.243Z,44.68
2023-03-21T10:42:28.521Z,44.52
2023-03-21T10:44:57.236Z,44.73
2023-03-21T10:47:42.948Z,45.03
2023-03-21T10:50:17.401Z,44.77
2023-03-21T10:52:51.363Z,44.63
2023-03-21T10:55:31.242Z,44.83
2023-03-21T10:58:06.632Z,44.66
2023-03-21T11:00:43.340Z,44.76
2023-03-21T11:03:36.528Z,44.80
2023-03-21T11:06:11.551Z,44.74
2023-03-21T11:08:50.762Z,44.66
2023-03-21T11:11:39.224Z,44.72
2023-03-21T11:14:24.351Z,44.82
2023-03-21T11:16:55.321Z,44.74
2023-03-21T11:19:35.768Z,44.79
2023-03-21T11:22:09.019Z,44.80
2023-03-21T11:24:36.367Z,44.97
2023-03-21T11:27:08.095Z,45.34
2023-03-21T11:29:37.654Z,45.46
2023-03-21T11:32:21.976Z,45.81
2023-03-21T11:35:01.815Z,45.90
2023-03-21T11:37:34.648Z,45.63
2023-03-21T11:40:24.787Z,45.48
2023-03-21T11:42:59.903Z,45.22
2023-03-21T11:45:29.628Z,45.09
2023-03-21T11:47:59.338Z,45.10
2023-03-21T11:50:40.693Z,45.05
2023-03-21T11:53:35.828Z,44.90
2023-03-21T11:56:12.631Z,45.03
2023-03-21T11:59:04.055Z,44.89
2023-03-21T12:01:59.396Z,45.01
2023-03-21T12:04:54.678Z,44.81
2023-03-21T12:07:40.486Z,44.78
2023-03-21T12:10:07.500Z,44.81
2023-03-21T12:12:39.868Z,44.81
2023-03-21T12:15:22.434Z,44.27
2023-03-21T12:18:15.109Z,44.20
2023-03-21T12:20:50.355Z,44.45
2023-03-21T12:23:45.387Z,44.62
2023-03-21T12:26:32.442Z,44.63
2023-03-21T12:29:23.914Z,44.73
2023-03-21T12:31:54.179Z,44.62
2023-03-21T12:34:39.258Z,44.47
2023-03-21T12:37:35.143Z,44.45
2023-03-21T12:40:28.601Z,44.49
2023-03-21T12:43:26.435Z,44.49
2023-03-21T12:46:04.431Z,44.48
2023-03-21T12:48:53.067Z,44.47
2023-03-21T12:51:26.730Z,44.50
2023-03-21T12:54:14.343Z,44.50
2023-03-21T12:57:04.553Z,44.42
2023-03-21T13:00:03.027Z,44.54
2023-03-21T13:02:34.137Z,44.51
2023-03-21T13:05:28.299Z,44.54
2023-03-21T13:08:15.288Z,44.46
2023-03-21T13:10:45.135Z,44.45
2023-03-21T13:13:26.520Z,44.49
2023-03-21T13:19:17.444Z,44.41
2023-03-21T13:22:02.508Z,44.47
2023-03-21T13:24:37.937Z,44.29
2023-03-21T13:27:22.325Z,44.17
2023-03-21T13:30:02.511Z,44.13
2023-03-21T13:32:32.219Z,43.85
2023-03-21T13:35:00.323Z,43.91
2023-03-21T13:37:33.812Z,43.99
2023-03-21T13:40:03.571Z,44.04
2023-03-21T13:42:34.318Z,44.13
2023-03-21T13:45:05.636Z,44.16
2023-03-21T13:47:40.846Z,44.23
2023-03-21T13:50:33.737Z,44.49
2023-03-21T13:53:19.297Z,44.63
2023-03-21T13:55:57.569Z,44.72
2023-03-21T13:58:33.912Z,44.82
2023-03-21T14:01:26.226Z,45.02
2023-03-21T14:04:11.736Z,45.96
2023-03-21T14:06:55.122Z,46.25
2023-03-21T14:09:37.121Z,46.46
2023-03-21T14:12:09.522Z,46.36
2023-03-21T14:14:42.576Z,46.15
2023-03-21T14:17:21.851Z,46.08
2023-03-21T14:19:55.398Z,46.05
2023-03-21T14:22:23.298Z,45.83
2023-03-21T14:25:01.392Z,45.76
2023-03-21T14:27:35.232Z,45.57
2023-03-21T14:30:06.760Z,45.35
2023-03-21T14:32:37.585Z,45.16
2023-03-21T14:35:04.940Z,44.95
2023-03-21T14:37:39.793Z,44.59
2023-03-21T14:40:18.390Z,45.10
2023-03-21T14:42:50.797Z,45.25
2023-03-21T14:45:26.899Z,45.27
2023-03-21T14:48:07.346Z,45.26
2023-03-21T14:50:51.655Z,45.22
2023-03-21T14:53:32.621Z,45.34
2023-03-21T14:56:07.841Z,45.35
2023-03-21T14:58:39.463Z,45.16
2023-03-21T15:01:13.787Z,45.19
2023-03-21T15:03:50.615Z,45.16
2023-03-21T15:06:17.672Z,45.14
2023-03-21T15:09:02.653Z,45.36
2023-03-21T15:11:39.483Z,45.47
2023-03-21T15:14:13.255Z,45.52
2023-03-21T15:16:40.236Z,45.43
2023-03-21T15:19:10.952Z,45.41
2023-03-21T15:21:48.756Z,45.13
2023-03-21T15:24:32.544Z,44.99
2023-03-21T15:27:20.142Z,44.83
2023-03-21T15:29:51.630Z,44.83
2023-03-21T15:32:21.885Z,44.67
2023-03-21T15:34:51.822Z,44.74
2023-03-21T15:37:28.403Z,44.73
2023-03-21T15:40:08.514Z,43.47
2023-03-21T15:42:40.461Z,41.97
2023-03-21T15:45:22.227Z,41.76
2023-03-21T15:47:52.213Z,41.33
2023-03-21T15:50:40.304Z,41.17
2023-03-21T15:53:32.160Z,41.26
2023-03-21T15:56:00.072Z,41.46
2023-03-21T15:58:33.095Z,41.17
2023-03-21T16:01:01.870Z,41.37
2023-03-21T16:03:32.002Z,42.18
2023-03-21T16:06:10.722Z,42.60
2023-03-21T16:08:44.706Z,42.73
2023-03-21T16:11:22.653Z,42.76
2023-03-21T16:13:50.400Z,42.84
2023-03-21T16:16:18.980Z,42.88
2023-03-21T16:18:45.888Z,42.91
2023-03-21T16:21:18.187Z,43.06
2023-03-21T16:23:45.756Z,43.04
2023-03-21T16:26:21.173Z,43.05
2023-03-21T16:28:51.442Z,41.84
2023-03-21T16:31:23.919Z,41.97
2023-03-21T16:33:51.100Z,42.54
2023-03-21T16:36:31.022Z,42.74
2023-03-21T16:39:02.168Z,42.89
2023-03-21T16:41:30.846Z,43.04
2023-03-21T16:43:58.938Z,42.86
2023-03-21T16:46:28.876Z,42.93
2023-03-21T16:48:59.867Z,42.96
2023-03-21T16:51:36.676Z,42.41
2023-03-21T16:54:05.066Z,42.60
2023-03-21T16:56:40.850Z,42.86
2023-03-21T16:59:08.023Z,43.14
2023-03-21T17:01:38.331Z,43.25
2023-03-21T17:04:08.929Z,43.39
2023-03-21T17:06:58.512Z,42.22
2023-03-21T17:09:28.847Z,42.86
2023-03-21T17:11:56.100Z,43.47
2023-03-21T17:14:23.262Z,43.49
2023-03-21T17:16:54.002Z,43.49
2023-03-21T17:19:24.485Z,43.11
2023-03-21T17:21:51.208Z,43.18
2023-03-21T17:24:18.042Z,43.23
2023-03-21T17:26:48.432Z,43.17
2023-03-21T17:29:21.962Z,43.20
2023-03-21T17:31:52.643Z,43.19
2023-03-21T17:34:20.186Z,43.22
2023-03-21T17:36:48.275Z,43.20
2023-03-21T17:39:26.832Z,43.30
2023-03-21T17:41:54.036Z,43.27
2023-03-21T17:44:23.763Z,43.21
2023-03-21T17:46:54.860Z,43.26
2023-03-21T17:49:25.333Z,43.22
2023-03-21T17:51:55.807Z,43.32
2023-03-21T17:54:26.662Z,43.43
2023-03-21T17:56:57.191Z,42.99
2023-03-21T17:59:28.277Z,43.11
2023-03-21T18:02:07.349Z,43.31
2023-03-21T18:04:39.371Z,43.54
2023-03-21T18:07:16.147Z,43.55
2023-03-21T18:09:48.457Z,43.75
2023-03-21T18:12:19.039Z,43.77
2023-03-21T18:14:51.366Z,43.92
2023-03-21T18:17:19.202Z,44.12
2023-03-21T18:19:46.948Z,44.14
2023-03-21T18:22:14.656Z,44.30
2023-03-21T18:24:44.902Z,44.99
2023-03-21T18:27:18.491Z,45.05
2023-03-21T18:30:25.635Z,45.10
2023-03-21T18:32:39.432Z,44.87
2023-03-21T18:35:09.495Z,44.68
2023-03-21T18:37:42.496Z,44.59
2023-03-21T18:40:10.122Z,44.44
2023-03-21T18:43:08.726Z,44.29
2023-03-21T18:45:29.988Z,44.27
2023-03-21T18:47:58.201Z,44.14
2023-03-21T18:50:29.089Z,44.10
2023-03-21T18:53:00.759Z,43.97
2023-03-21T18:55:44.505Z,43.94
2023-03-21T18:58:18.085Z,43.88
2023-03-21T19:00:45.865Z,43.73
2023-03-21T19:03:24.888Z,43.41
2023-03-21T19:06:07.649Z,43.56
2023-03-21T19:08:38.674Z,43.58
2023-03-21T19:11:06.985Z,43.57
2023-03-21T19:13:37.671Z,43.60
2023-03-21T19:16:11.605Z,43.61
2023-03-21T19:18:53.900Z,43.59
2023-03-21T19:21:30.039Z,43.75
2023-03-21T19:26:48.476Z,43.39
2023-03-21T19:29:16.430Z,43.31
2023-03-21T19:31:45.185Z,43.20
2023-03-21T19:34:15.919Z,43.16
2023-03-21T19:36:51.494Z,43.09
2023-03-21T19:39:23.502Z,43.08
2023-03-21T19:42:02.921Z,42.82
2023-03-21T19:44:43.274Z,42.75
2023-03-21T19:47:19.616Z,42.90
2023-03-21T19:52:37.808Z,42.48
2023-03-21T19:55:10.743Z,42.28
2023-03-21T19:57:39.017Z,42.17
2023-03-21T20:00:06.722Z,42.37
2023-03-21T20:02:40.229Z,42.06
2023-03-21T20:05:14.596Z,41.83
2023-03-21T20:07:47.229Z,41.70
2023-03-21T20:10:14.257Z,41.56
2023-03-21T20:12:41.116Z,41.45
2023-03-21T20:15:18.369Z,41.32
2023-03-21T20:17:49.144Z,41.19
2023-03-21T20:20:19.639Z,41.10
2023-03-21T20:23:15.815Z,41.04
2023-03-21T20:25:43.139Z,40.99
2023-03-21T20:28:24.707Z,40.93
2023-03-21T20:30:56.326Z,40.77
2023-03-21T20:33:23.581Z,40.79
2023-03-21T20:38:52.474Z,40.63
2023-03-21T20:41:25.352Z,40.50
2023-03-21T20:44:34.712Z,40.52
2023-03-21T20:46:42.698Z,40.38
2023-03-21T20:49:13.529Z,40.44
2023-03-21T20:54:28.275Z,40.36
2023-03-21T20:56:58.633Z,39.98
2023-03-21T20:59:28.131Z,39.91
2023-03-21T21:01:59.970Z,39.87
2023-03-21T21:04:44.879Z,39.76
2023-03-21T21:07:14.395Z,39.68
2023-03-21T21:09:42.559Z,39.66
2023-03-21T21:12:12.797Z,39.60
2023-03-21T21:14:40.810Z,39.48
2023-03-21T21:19:57.702Z,39.39
2023-03-21T21:22:27.376Z,39.41
2023-03-21T21:24:57.791Z,39.68
2023-03-21T21:27:27.075Z,40.02
2023-03-21T21:29:56.820Z,40.13
2023-03-21T21:32:23.668Z,40.12
2023-03-21T21:34:56.254Z,40.29
2023-03-21T21:37:28.535Z,40.32
2023-03-21T21:39:55.519Z,40.46
2023-03-21T21:42:22.576Z,40.51
2023-03-21T21:44:57.454Z,40.56
2023-03-21T21:47:24.436Z,40.59
2023-03-21T21:49:57.021Z,40.64
2023-03-21T21:52:24.023Z,40.76
2023-03-21T21:54:54.343Z,40.84
2023-03-21T21:57:21.627Z,40.79
2023-03-21T21:59:49.014Z,40.85
2023-03-21T22:02:18.962Z,40.91
2023-03-21T22:04:45.752Z,40.97
2023-03-21T22:07:12.816Z,40.96
2023-03-21T22:09:42.583Z,41.00
2023-03-21T22:12:10.055Z,41.09
2023-03-21T22:14:37.025Z,41.10
2023-03-21T22:17:06.394Z,41.18
2023-03-21T22:19:33.258Z,41.17
2023-03-21T22:22:00.121Z,41.21
2023-03-21T22:24:27.339Z,41.26
2023-03-21T22:26:57.794Z,41.22
2023-03-21T22:29:28.694Z,41.24
2023-03-21T22:31:59.048Z,41.38
2023-03-21T22:34:26.784Z,41.45
2023-03-21T22:36:56.874Z,41.40
2023-03-21T22:39:26.744Z,41.44
2023-03-21T22:41:53.939Z,41.59
2023-03-21T22:44:20.994Z,41.65
2023-03-21T22:46:48.473Z,41.60
2023-03-21T22:49:18.934Z,41.63
2023-03-21T22:51:48.490Z,41.67
2023-03-21T22:54:15.943Z,41.65
2023-03-21T22:56:46.357Z,41.75
2023-03-21T22:59:16.259Z,41.76
2023-03-21T23:01:43.469Z,41.81
2023-03-21T23:04:11.057Z,41.84
2023-03-21T23:06:40.289Z,41.84
2023-03-21T23:09:10.480Z,41.81
2023-03-21T23:11:41.383Z,41.82
2023-03-21T23:14:08.872Z,41.87
2023-03-21T23:16:38.975Z,41.91
2023-03-21T23:19:06.531Z,41.90
2023-03-21T23:21:34.359Z,41.92
2023-03-21T23:24:02.202Z,41.98
2023-03-21T23:26:33.334Z,41.94
2023-03-21T23:29:00.963Z,41.93
2023-03-21T23:31:29.726Z,42.00
2023-03-21T23:33:58.940Z,41.95
2023-03-21T23:36:26.190Z,41.95
2023-03-21T23:38:53.815Z,41.97
2023-03-21T23:41:23.279Z,41.99
2023-03-21T23:43:51.142Z,42.02
2023-03-21T23:46:23.069Z,42.04
2023-03-21T23:48:50.529Z,42.09
2023-03-21T23:51:18.434Z,42.09
2023-03-21T23:53:48.855Z,42.11
2023-03-21T23:56:20.387Z,42.07
2023-03-21T23:58:49.728Z,42.07
